sensor_id;sensor_type;location;lat;lon;timestamp;pressure;altitude;pressure_sealevel;temperature;humidity
77823;BME280;67013;49.730;17.292;2023-12-20T00:01:19;98131.34;;;3.03;75.39
77823;BME280;67013;49.730;17.292;2023-12-20T00:03:48;98125.80;;;2.96;75.21
77823;BME280;67013;49.730;17.292;2023-12-20T00:06:17;98119.19;;;2.91;75.66
77823;BME280;67013;49.730;17.292;2023-12-20T00:08:47;98119.98;;;2.88;75.82
77823;BME280;67013;49.730;17.292;2023-12-20T00:11:17;98122.05;;;2.88;75.76
77823;BME280;67013;49.730;17.292;2023-12-20T00:13:47;98114.50;;;2.88;75.65
77823;BME280;67013;49.730;17.292;2023-12-20T00:16:16;98115.48;;;2.89;75.83
77823;BME280;67013;49.730;17.292;2023-12-20T00:18:46;98106.20;;;2.89;75.68
77823;BME280;67013;49.730;17.292;2023-12-20T00:21:15;98095.40;;;2.89;75.68
77823;BME280;67013;49.730;17.292;2023-12-20T00:23:45;98095.55;;;2.85;75.61
77823;BME280;67013;49.730;17.292;2023-12-20T00:26:14;98096.60;;;2.81;75.69
77823;BME280;67013;49.730;17.292;2023-12-20T00:28:44;98090.65;;;2.80;75.47
77823;BME280;67013;49.730;17.292;2023-12-20T00:31:13;98083.66;;;2.79;75.74
77823;BME280;67013;49.730;17.292;2023-12-20T00:33:42;98084.75;;;2.78;75.54
77823;BME280;67013;49.730;17.292;2023-12-20T00:36:14;98074.70;;;2.72;75.65
77823;BME280;67013;49.730;17.292;2023-12-20T00:38:43;98072.55;;;2.70;75.85
77823;BME280;67013;49.730;17.292;2023-12-20T00:41:13;98079.27;;;2.70;75.66
77823;BME280;67013;49.730;17.292;2023-12-20T00:43:42;98070.79;;;2.68;75.44
77823;BME280;67013;49.730;17.292;2023-12-20T00:46:12;98059.88;;;2.66;75.38
77823;BME280;67013;49.730;17.292;2023-12-20T00:48:42;98072.30;;;2.65;75.21
77823;BME280;67013;49.730;17.292;2023-12-20T00:51:13;98063.23;;;2.60;75.43
77823;BME280;67013;49.730;17.292;2023-12-20T00:53:43;98066.29;;;2.54;75.57
77823;BME280;67013;49.730;17.292;2023-12-20T00:56:12;98058.63;;;2.49;75.58
77823;BME280;67013;49.730;17.292;2023-12-20T00:58:42;98061.35;;;2.45;75.77
77823;BME280;67013;49.730;17.292;2023-12-20T01:01:11;98063.09;;;2.45;75.62
77823;BME280;67013;49.730;17.292;2023-12-20T01:03:41;98054.48;;;2.45;75.98
77823;BME280;67013;49.730;17.292;2023-12-20T01:06:10;98048.64;;;2.50;75.94
77823;BME280;67013;49.730;17.292;2023-12-20T01:08:40;98041.16;;;2.52;76.19
77823;BME280;67013;49.730;17.292;2023-12-20T01:11:09;98044.95;;;2.55;76.26
77823;BME280;67013;49.730;17.292;2023-12-20T01:13:39;98048.89;;;2.59;76.24
77823;BME280;67013;49.730;17.292;2023-12-20T01:16:10;98053.54;;;2.62;76.60
77823;BME280;67013;49.730;17.292;2023-12-20T01:18:40;98049.49;;;2.64;76.38
77823;BME280;67013;49.730;17.292;2023-12-20T01:21:09;98050.91;;;2.67;76.39
77823;BME280;67013;49.730;17.292;2023-12-20T01:23:39;98058.04;;;2.68;76.47
77823;BME280;67013;49.730;17.292;2023-12-20T01:26:08;98043.86;;;2.71;76.44
77823;BME280;67013;49.730;17.292;2023-12-20T01:28:38;98035.02;;;2.72;76.28
77823;BME280;67013;49.730;17.292;2023-12-20T01:31:08;98021.20;;;2.74;76.44
77823;BME280;67013;49.730;17.292;2023-12-20T01:33:37;98014.38;;;2.73;76.32
77823;BME280;67013;49.730;17.292;2023-12-20T01:36:07;98032.50;;;2.75;76.58
77823;BME280;67013;49.730;17.292;2023-12-20T01:38:37;98040.61;;;2.78;76.60
77823;BME280;67013;49.730;17.292;2023-12-20T01:41:07;98031.83;;;2.82;76.55
77823;BME280;67013;49.730;17.292;2023-12-20T01:43:36;98035.16;;;2.88;76.41
77823;BME280;67013;49.730;17.292;2023-12-20T01:46:06;98028.38;;;2.94;76.37
77823;BME280;67013;49.730;17.292;2023-12-20T01:48:36;98022.15;;;2.98;76.20
77823;BME280;67013;49.730;17.292;2023-12-20T01:51:07;98010.24;;;3.02;76.24
77823;BME280;67013;49.730;17.292;2023-12-20T01:53:37;98004.44;;;3.05;75.84
77823;BME280;67013;49.730;17.292;2023-12-20T01:56:08;97996.05;;;3.08;76.03
77823;BME280;67013;49.730;17.292;2023-12-20T01:58:41;97989.31;;;3.09;76.01
77823;BME280;67013;49.730;17.292;2023-12-20T02:01:13;97986.54;;;3.10;76.11
77823;BME280;67013;49.730;17.292;2023-12-20T02:03:43;97983.09;;;3.10;76.11
77823;BME280;67013;49.730;17.292;2023-12-20T02:06:13;97983.23;;;3.13;76.13
77823;BME280;67013;49.730;17.292;2023-12-20T02:08:42;97988.71;;;3.17;76.18
77823;BME280;67013;49.730;17.292;2023-12-20T02:11:12;97989.55;;;3.22;76.20
77823;BME280;67013;49.730;17.292;2023-12-20T02:13:42;97998.57;;;3.27;76.18
77823;BME280;67013;49.730;17.292;2023-12-20T02:16:12;98010.21;;;3.31;76.09
77823;BME280;67013;49.730;17.292;2023-12-20T02:18:43;98010.27;;;3.33;75.99
77823;BME280;67013;49.730;17.292;2023-12-20T02:21:13;98003.61;;;3.36;76.10
77823;BME280;67013;49.730;17.292;2023-12-20T02:23:43;97988.01;;;3.35;75.61
77823;BME280;67013;49.730;17.292;2023-12-20T02:26:14;97985.05;;;3.32;75.79
77823;BME280;67013;49.730;17.292;2023-12-20T02:28:43;97983.86;;;3.28;76.08
77823;BME280;67013;49.730;17.292;2023-12-20T02:31:13;97989.95;;;3.27;76.21
77823;BME280;67013;49.730;17.292;2023-12-20T02:33:43;97989.76;;;3.24;76.08
77823;BME280;67013;49.730;17.292;2023-12-20T02:36:12;97989.64;;;3.23;76.53
77823;BME280;67013;49.730;17.292;2023-12-20T02:38:42;97984.15;;;3.26;76.63
77823;BME280;67013;49.730;17.292;2023-12-20T02:41:11;97987.29;;;3.29;76.45
77823;BME280;67013;49.730;17.292;2023-12-20T02:43:40;97986.02;;;3.30;76.83
77823;BME280;67013;49.730;17.292;2023-12-20T02:46:10;97981.23;;;3.33;76.78
77823;BME280;67013;49.730;17.292;2023-12-20T02:48:40;97980.07;;;3.36;76.93
77823;BME280;67013;49.730;17.292;2023-12-20T02:51:09;97977.86;;;3.39;76.94
77823;BME280;67013;49.730;17.292;2023-12-20T02:53:38;97980.11;;;3.41;76.89
77823;BME280;67013;49.730;17.292;2023-12-20T02:56:08;97975.23;;;3.43;76.64
77823;BME280;67013;49.730;17.292;2023-12-20T02:58:38;97972.44;;;3.43;76.73
77823;BME280;67013;49.730;17.292;2023-12-20T03:01:07;97982.90;;;3.44;76.23
77823;BME280;67013;49.730;17.292;2023-12-20T03:03:36;97979.04;;;3.46;76.63
77823;BME280;67013;49.730;17.292;2023-12-20T03:06:06;97978.23;;;3.48;76.37
77823;BME280;67013;49.730;17.292;2023-12-20T03:08:36;97974.09;;;3.52;76.33
77823;BME280;67013;49.730;17.292;2023-12-20T03:11:06;97973.45;;;3.54;76.29
77823;BME280;67013;49.730;17.292;2023-12-20T03:13:36;97961.36;;;3.56;76.10
77823;BME280;67013;49.730;17.292;2023-12-20T03:16:10;97959.48;;;3.56;75.96
77823;BME280;67013;49.730;17.292;2023-12-20T03:18:40;97954.34;;;3.55;75.81
77823;BME280;67013;49.730;17.292;2023-12-20T03:21:10;97956.02;;;3.56;76.33
77823;BME280;67013;49.730;17.292;2023-12-20T03:23:40;97954.14;;;3.56;75.98
77823;BME280;67013;49.730;17.292;2023-12-20T03:26:09;97938.19;;;3.55;76.23
77823;BME280;67013;49.730;17.292;2023-12-20T03:28:39;97936.36;;;3.53;76.18
77823;BME280;67013;49.730;17.292;2023-12-20T03:31:08;97920.77;;;3.52;76.02
77823;BME280;67013;49.730;17.292;2023-12-20T03:33:38;97910.14;;;3.52;75.56
77823;BME280;67013;49.730;17.292;2023-12-20T03:36:08;97887.25;;;3.49;75.65
77823;BME280;67013;49.730;17.292;2023-12-20T03:38:37;97879.48;;;3.46;75.55
77823;BME280;67013;49.730;17.292;2023-12-20T03:41:08;97897.30;;;3.44;75.65
77823;BME280;67013;49.730;17.292;2023-12-20T03:43:38;97897.85;;;3.43;75.48
77823;BME280;67013;49.730;17.292;2023-12-20T03:46:09;97884.12;;;3.43;75.96
77823;BME280;67013;49.730;17.292;2023-12-20T03:48:38;97894.95;;;3.43;76.11
77823;BME280;67013;49.730;17.292;2023-12-20T03:51:08;97922.28;;;3.37;76.15
77823;BME280;67013;49.730;17.292;2023-12-20T03:53:37;97948.71;;;3.34;76.60
77823;BME280;67013;49.730;17.292;2023-12-20T03:56:09;97951.29;;;3.34;76.34
77823;BME280;67013;49.730;17.292;2023-12-20T03:58:38;97955.51;;;3.36;76.35
77823;BME280;67013;49.730;17.292;2023-12-20T04:01:11;97960.23;;;3.38;75.90
77823;BME280;67013;49.730;17.292;2023-12-20T04:03:41;97951.11;;;3.41;76.03
77823;BME280;67013;49.730;17.292;2023-12-20T04:06:10;97933.02;;;3.45;75.84
77823;BME280;67013;49.730;17.292;2023-12-20T04:08:45;97918.69;;;3.49;75.91
77823;BME280;67013;49.730;17.292;2023-12-20T04:11:15;97913.08;;;3.52;75.93
77823;BME280;67013;49.730;17.292;2023-12-20T04:13:45;97907.45;;;3.54;75.84
77823;BME280;67013;49.730;17.292;2023-12-20T04:16:14;97927.35;;;3.55;75.52
77823;BME280;67013;49.730;17.292;2023-12-20T04:18:43;97912.44;;;3.54;75.77
77823;BME280;67013;49.730;17.292;2023-12-20T04:21:13;97895.09;;;3.54;75.79
77823;BME280;67013;49.730;17.292;2023-12-20T04:23:42;97887.54;;;3.53;75.71
77823;BME280;67013;49.730;17.292;2023-12-20T04:26:12;97890.64;;;3.53;75.41
77823;BME280;67013;49.730;17.292;2023-12-20T04:28:41;97889.62;;;3.53;75.55
77823;BME280;67013;49.730;17.292;2023-12-20T04:31:11;97897.02;;;3.53;75.22
77823;BME280;67013;49.730;17.292;2023-12-20T04:33:40;97896.51;;;3.53;75.33
77823;BME280;67013;49.730;17.292;2023-12-20T04:36:10;97903.02;;;3.53;75.51
77823;BME280;67013;49.730;17.292;2023-12-20T04:38:39;97897.67;;;3.54;75.27
77823;BME280;67013;49.730;17.292;2023-12-20T04:41:08;97898.35;;;3.54;75.32
77823;BME280;67013;49.730;17.292;2023-12-20T04:43:38;97893.95;;;3.56;75.37
77823;BME280;67013;49.730;17.292;2023-12-20T04:46:07;97893.42;;;3.56;75.15
77823;BME280;67013;49.730;17.292;2023-12-20T04:48:37;97898.54;;;3.57;75.58
77823;BME280;67013;49.730;17.292;2023-12-20T04:51:06;97897.67;;;3.57;75.51
77823;BME280;67013;49.730;17.292;2023-12-20T04:53:36;97902.52;;;3.57;75.57
77823;BME280;67013;49.730;17.292;2023-12-20T04:56:06;97908.60;;;3.56;75.34
77823;BME280;67013;49.730;17.292;2023-12-20T04:58:36;97919.89;;;3.53;75.93
77823;BME280;67013;49.730;17.292;2023-12-20T05:01:08;97922.42;;;3.50;75.64
77823;BME280;67013;49.730;17.292;2023-12-20T05:03:36;97921.84;;;3.48;75.66
77823;BME280;67013;49.730;17.292;2023-12-20T05:06:06;97922.92;;;3.47;75.59
77823;BME280;67013;49.730;17.292;2023-12-20T05:08:35;97925.98;;;3.48;75.82
77823;BME280;67013;49.730;17.292;2023-12-20T05:11:05;97926.22;;;3.50;75.63
77823;BME280;67013;49.730;17.292;2023-12-20T05:13:34;97919.79;;;3.52;75.70
77823;BME280;67013;49.730;17.292;2023-12-20T05:16:05;97924.67;;;3.53;75.73
77823;BME280;67013;49.730;17.292;2023-12-20T05:18:35;97925.34;;;3.54;75.80
77823;BME280;67013;49.730;17.292;2023-12-20T05:21:05;97927.81;;;3.53;75.80
77823;BME280;67013;49.730;17.292;2023-12-20T05:23:34;97925.77;;;3.52;75.74
77823;BME280;67013;49.730;17.292;2023-12-20T05:26:04;97928.57;;;3.51;76.06
77823;BME280;67013;49.730;17.292;2023-12-20T05:28:34;97928.08;;;3.50;75.92
77823;BME280;67013;49.730;17.292;2023-12-20T05:31:04;97923.14;;;3.50;76.13
77823;BME280;67013;49.730;17.292;2023-12-20T05:33:35;97923.39;;;3.48;75.53
77823;BME280;67013;49.730;17.292;2023-12-20T05:36:05;97910.06;;;3.47;75.88
77823;BME280;67013;49.730;17.292;2023-12-20T05:38:39;97912.14;;;3.46;75.65
77823;BME280;67013;49.730;17.292;2023-12-20T05:41:08;97910.08;;;3.46;75.67
77823;BME280;67013;49.730;17.292;2023-12-20T05:43:38;97904.92;;;3.46;76.03
77823;BME280;67013;49.730;17.292;2023-12-20T05:46:07;97907.77;;;3.48;75.84
77823;BME280;67013;49.730;17.292;2023-12-20T05:48:38;97913.27;;;3.48;75.94
77823;BME280;67013;49.730;17.292;2023-12-20T05:51:08;97913.39;;;3.49;76.02
77823;BME280;67013;49.730;17.292;2023-12-20T05:53:40;97909.46;;;3.48;75.92
77823;BME280;67013;49.730;17.292;2023-12-20T05:56:09;97910.29;;;3.46;75.82
77823;BME280;67013;49.730;17.292;2023-12-20T05:58:39;97916.27;;;3.40;76.04
77823;BME280;67013;49.730;17.292;2023-12-20T06:01:09;97909.54;;;3.37;76.39
77823;BME280;67013;49.730;17.292;2023-12-20T06:03:42;97900.78;;;3.37;76.07
77823;BME280;67013;49.730;17.292;2023-12-20T06:06:12;97901.86;;;3.36;76.11
77823;BME280;67013;49.730;17.292;2023-12-20T06:08:42;97901.42;;;3.35;76.23
77823;BME280;67013;49.730;17.292;2023-12-20T06:11:12;97910.76;;;3.33;76.27
77823;BME280;67013;49.730;17.292;2023-12-20T06:13:43;97910.51;;;3.32;76.69
77823;BME280;67013;49.730;17.292;2023-12-20T06:16:13;97902.21;;;3.33;76.74
77823;BME280;67013;49.730;17.292;2023-12-20T06:18:43;97907.56;;;3.35;76.80
77823;BME280;67013;49.730;17.292;2023-12-20T06:21:13;97909.18;;;3.34;76.54
77823;BME280;67013;49.730;17.292;2023-12-20T06:23:43;97908.21;;;3.33;76.65
77823;BME280;67013;49.730;17.292;2023-12-20T06:26:12;97908.85;;;3.34;76.99
77823;BME280;67013;49.730;17.292;2023-12-20T06:28:42;97909.80;;;3.35;76.85
77823;BME280;67013;49.730;17.292;2023-12-20T06:31:11;97914.36;;;3.33;76.76
77823;BME280;67013;49.730;17.292;2023-12-20T06:33:41;97916.60;;;3.34;77.09
77823;BME280;67013;49.730;17.292;2023-12-20T06:36:12;97920.23;;;3.33;77.04
77823;BME280;67013;49.730;17.292;2023-12-20T06:38:42;97919.85;;;3.33;76.95
77823;BME280;67013;49.730;17.292;2023-12-20T06:41:14;97920.72;;;3.34;77.25
77823;BME280;67013;49.730;17.292;2023-12-20T06:43:44;97928.23;;;3.34;77.26
77823;BME280;67013;49.730;17.292;2023-12-20T06:46:15;97926.14;;;3.35;77.61
77823;BME280;67013;49.730;17.292;2023-12-20T06:48:44;97927.06;;;3.37;77.76
77823;BME280;67013;49.730;17.292;2023-12-20T06:51:15;97930.77;;;3.42;77.59
77823;BME280;67013;49.730;17.292;2023-12-20T06:53:45;97930.58;;;3.45;77.62
77823;BME280;67013;49.730;17.292;2023-12-20T06:56:15;97932.59;;;3.46;77.53
77823;BME280;67013;49.730;17.292;2023-12-20T06:58:45;97935.75;;;3.48;77.53
77823;BME280;67013;49.730;17.292;2023-12-20T07:01:16;97937.73;;;3.50;77.51
77823;BME280;67013;49.730;17.292;2023-12-20T07:03:45;97930.40;;;3.52;77.47
77823;BME280;67013;49.730;17.292;2023-12-20T07:06:15;97933.05;;;3.55;77.54
77823;BME280;67013;49.730;17.292;2023-12-20T07:08:45;97936.27;;;3.56;77.56
77823;BME280;67013;49.730;17.292;2023-12-20T07:11:14;97937.39;;;3.57;77.55
77823;BME280;67013;49.730;17.292;2023-12-20T07:13:44;97938.79;;;3.60;77.57
77823;BME280;67013;49.730;17.292;2023-12-20T07:16:13;97944.30;;;3.63;77.53
77823;BME280;67013;49.730;17.292;2023-12-20T07:18:43;97941.70;;;3.67;77.51
77823;BME280;67013;49.730;17.292;2023-12-20T07:21:12;97943.91;;;3.71;77.46
77823;BME280;67013;49.730;17.292;2023-12-20T07:23:42;97944.76;;;3.74;77.51
77823;BME280;67013;49.730;17.292;2023-12-20T07:26:11;97943.38;;;3.74;77.71
77823;BME280;67013;49.730;17.292;2023-12-20T07:28:41;97944.25;;;3.74;77.44
77823;BME280;67013;49.730;17.292;2023-12-20T07:31:10;97941.90;;;3.73;77.63
77823;BME280;67013;49.730;17.292;2023-12-20T07:33:40;97944.16;;;3.72;77.62
77823;BME280;67013;49.730;17.292;2023-12-20T07:36:10;97950.86;;;3.72;77.70
77823;BME280;67013;49.730;17.292;2023-12-20T07:38:39;97951.02;;;3.72;77.74
77823;BME280;67013;49.730;17.292;2023-12-20T07:41:12;97950.49;;;3.72;77.75
77823;BME280;67013;49.730;17.292;2023-12-20T07:43:41;97957.94;;;3.75;77.59
77823;BME280;67013;49.730;17.292;2023-12-20T07:46:11;97957.48;;;3.77;77.96
77823;BME280;67013;49.730;17.292;2023-12-20T07:48:40;97956.66;;;3.80;77.68
77823;BME280;67013;49.730;17.292;2023-12-20T07:51:10;97956.88;;;3.82;77.89
77823;BME280;67013;49.730;17.292;2023-12-20T07:53:40;97962.58;;;3.85;77.71
77823;BME280;67013;49.730;17.292;2023-12-20T07:56:20;97955.69;;;3.88;77.50
77823;BME280;67013;49.730;17.292;2023-12-20T07:58:49;97957.63;;;3.90;77.79
77823;BME280;67013;49.730;17.292;2023-12-20T08:01:19;97960.48;;;3.92;77.73
77823;BME280;67013;49.730;17.292;2023-12-20T08:03:49;97964.70;;;3.94;77.87
77823;BME280;67013;49.730;17.292;2023-12-20T08:06:19;97967.91;;;3.95;77.95
77823;BME280;67013;49.730;17.292;2023-12-20T08:08:49;97966.33;;;3.95;77.66
77823;BME280;67013;49.730;17.292;2023-12-20T08:11:18;97963.26;;;3.95;77.66
77823;BME280;67013;49.730;17.292;2023-12-20T08:13:48;97959.42;;;3.96;77.57
77823;BME280;67013;49.730;17.292;2023-12-20T08:16:18;97962.30;;;3.97;77.36
77823;BME280;67013;49.730;17.292;2023-12-20T08:18:48;97966.31;;;3.99;77.77
77823;BME280;67013;49.730;17.292;2023-12-20T08:21:18;97966.02;;;4.01;77.23
77823;BME280;67013;49.730;17.292;2023-12-20T08:23:48;97976.20;;;4.03;77.67
77823;BME280;67013;49.730;17.292;2023-12-20T08:26:20;97975.08;;;4.05;77.65
77823;BME280;67013;49.730;17.292;2023-12-20T08:28:50;97973.67;;;4.06;77.55
77823;BME280;67013;49.730;17.292;2023-12-20T08:31:20;97979.02;;;4.06;77.25
77823;BME280;67013;49.730;17.292;2023-12-20T08:33:50;97979.90;;;4.05;77.32
77823;BME280;67013;49.730;17.292;2023-12-20T08:36:21;97975.06;;;4.05;77.55
77823;BME280;67013;49.730;17.292;2023-12-20T08:38:51;97982.11;;;4.06;77.73
77823;BME280;67013;49.730;17.292;2023-12-20T08:41:21;97978.02;;;4.05;77.19
77823;BME280;67013;49.730;17.292;2023-12-20T08:43:50;97984.17;;;4.06;77.20
77823;BME280;67013;49.730;17.292;2023-12-20T08:46:20;97982.23;;;4.07;77.61
77823;BME280;67013;49.730;17.292;2023-12-20T08:48:49;97980.94;;;4.08;77.68
77823;BME280;67013;49.730;17.292;2023-12-20T08:51:19;97978.46;;;4.10;77.34
77823;BME280;67013;49.730;17.292;2023-12-20T08:53:49;97975.44;;;4.12;77.63
77823;BME280;67013;49.730;17.292;2023-12-20T08:56:18;97975.77;;;4.15;77.80
77823;BME280;67013;49.730;17.292;2023-12-20T08:58:48;97972.02;;;4.17;77.41
77823;BME280;67013;49.730;17.292;2023-12-20T09:01:17;97978.52;;;4.21;77.34
77823;BME280;67013;49.730;17.292;2023-12-20T09:03:47;97979.48;;;4.26;76.86
77823;BME280;67013;49.730;17.292;2023-12-20T09:06:16;97986.36;;;4.30;77.16
77823;BME280;67013;49.730;17.292;2023-12-20T09:08:46;97986.71;;;4.32;76.89
77823;BME280;67013;49.730;17.292;2023-12-20T09:11:16;97984.86;;;4.35;76.96
77823;BME280;67013;49.730;17.292;2023-12-20T09:13:45;97993.56;;;4.36;77.12
77823;BME280;67013;49.730;17.292;2023-12-20T09:16:15;97996.35;;;4.35;76.85
77823;BME280;67013;49.730;17.292;2023-12-20T09:18:44;97998.10;;;4.35;77.22
77823;BME280;67013;49.730;17.292;2023-12-20T09:21:14;97993.45;;;4.35;77.48
77823;BME280;67013;49.730;17.292;2023-12-20T09:23:43;97992.40;;;4.35;76.99
77823;BME280;67013;49.730;17.292;2023-12-20T09:26:13;97992.20;;;4.36;76.91
77823;BME280;67013;49.730;17.292;2023-12-20T09:28:42;97986.48;;;4.37;76.97
77823;BME280;67013;49.730;17.292;2023-12-20T09:31:12;97985.08;;;4.40;77.12
77823;BME280;67013;49.730;17.292;2023-12-20T09:33:41;97981.34;;;4.43;77.07
77823;BME280;67013;49.730;17.292;2023-12-20T09:36:11;97985.23;;;4.44;77.21
77823;BME280;67013;49.730;17.292;2023-12-20T09:38:40;97988.58;;;4.45;77.09
77823;BME280;67013;49.730;17.292;2023-12-20T09:41:10;97986.61;;;4.47;77.16
77823;BME280;67013;49.730;17.292;2023-12-20T09:43:41;97983.63;;;4.47;76.95
77823;BME280;67013;49.730;17.292;2023-12-20T09:46:13;97986.42;;;4.50;76.95
77823;BME280;67013;49.730;17.292;2023-12-20T09:48:46;97979.24;;;4.52;77.34
77823;BME280;67013;49.730;17.292;2023-12-20T09:51:16;97973.42;;;4.55;77.32
77823;BME280;67013;49.730;17.292;2023-12-20T09:53:46;97971.55;;;4.58;77.34
77823;BME280;67013;49.730;17.292;2023-12-20T09:56:16;97969.47;;;4.61;76.84
77823;BME280;67013;49.730;17.292;2023-12-20T09:58:46;97968.36;;;4.62;77.29
77823;BME280;67013;49.730;17.292;2023-12-20T10:01:17;97963.91;;;4.65;77.18
77823;BME280;67013;49.730;17.292;2023-12-20T10:03:47;97965.64;;;4.68;77.33
77823;BME280;67013;49.730;17.292;2023-12-20T10:06:17;97962.85;;;4.72;77.52
77823;BME280;67013;49.730;17.292;2023-12-20T10:08:46;97959.67;;;4.76;77.41
77823;BME280;67013;49.730;17.292;2023-12-20T10:11:16;97961.52;;;4.80;76.93
77823;BME280;67013;49.730;17.292;2023-12-20T10:13:49;97961.13;;;4.84;77.32
77823;BME280;67013;49.730;17.292;2023-12-20T10:16:18;97966.42;;;4.87;77.52
77823;BME280;67013;49.730;17.292;2023-12-20T10:18:54;97963.89;;;4.92;77.02
77823;BME280;67013;49.730;17.292;2023-12-20T10:21:23;97966.43;;;4.96;77.38
77823;BME280;67013;49.730;17.292;2023-12-20T10:23:54;97964.11;;;5.01;77.37
77823;BME280;67013;49.730;17.292;2023-12-20T10:26:26;97966.88;;;5.07;77.25
77823;BME280;67013;49.730;17.292;2023-12-20T10:29:00;97964.38;;;5.11;77.19
77823;BME280;67013;49.730;17.292;2023-12-20T10:31:32;97965.01;;;5.12;77.09
77823;BME280;67013;49.730;17.292;2023-12-20T10:34:02;97958.80;;;5.12;77.42
77823;BME280;67013;49.730;17.292;2023-12-20T10:36:33;97964.35;;;5.15;77.27
77823;BME280;67013;49.730;17.292;2023-12-20T10:39:04;97962.02;;;5.17;77.27
77823;BME280;67013;49.730;17.292;2023-12-20T10:41:38;97960.33;;;5.19;77.07
77823;BME280;67013;49.730;17.292;2023-12-20T10:44:10;97959.35;;;5.21;77.30
77823;BME280;67013;49.730;17.292;2023-12-20T10:46:41;97958.52;;;5.23;76.84
77823;BME280;67013;49.730;17.292;2023-12-20T10:49:16;97956.96;;;5.26;76.84
77823;BME280;67013;49.730;17.292;2023-12-20T10:51:48;97952.25;;;5.30;77.06
77823;BME280;67013;49.730;17.292;2023-12-20T10:54:18;97953.70;;;5.35;76.97
77823;BME280;67013;49.730;17.292;2023-12-20T10:56:48;97955.98;;;5.40;76.97
77823;BME280;67013;49.730;17.292;2023-12-20T10:59:21;97946.25;;;5.44;76.56
77823;BME280;67013;49.730;17.292;2023-12-20T11:01:54;97945.06;;;5.47;76.77
77823;BME280;67013;49.730;17.292;2023-12-20T11:04:28;97939.73;;;5.46;76.40
77823;BME280;67013;49.730;17.292;2023-12-20T11:07:11;97935.09;;;5.43;76.51
77823;BME280;67013;49.730;17.292;2023-12-20T11:09:47;97940.01;;;5.39;76.48
77823;BME280;67013;49.730;17.292;2023-12-20T11:12:22;97936.22;;;5.36;76.65
77823;BME280;67013;49.730;17.292;2023-12-20T11:14:56;97934.30;;;5.30;76.74
77823;BME280;67013;49.730;17.292;2023-12-20T11:17:29;97935.71;;;5.27;76.56
77823;BME280;67013;49.730;17.292;2023-12-20T11:20:10;97938.07;;;5.25;76.97
77823;BME280;67013;49.730;17.292;2023-12-20T11:22:51;97935.27;;;5.22;77.02
77823;BME280;67013;49.730;17.292;2023-12-20T11:25:21;97929.66;;;5.21;77.15
77823;BME280;67013;49.730;17.292;2023-12-20T11:28:08;97921.98;;;5.20;77.32
77823;BME280;67013;49.730;17.292;2023-12-20T11:30:47;97923.17;;;5.20;77.47
77823;BME280;67013;49.730;17.292;2023-12-20T11:33:17;97918.83;;;5.21;77.71
77823;BME280;67013;49.730;17.292;2023-12-20T11:35:50;97913.16;;;5.23;77.57
77823;BME280;67013;49.730;17.292;2023-12-20T11:38:21;97910.30;;;5.25;77.65
77823;BME280;67013;49.730;17.292;2023-12-20T11:40:51;97904.91;;;5.26;77.60
77823;BME280;67013;49.730;17.292;2023-12-20T11:43:34;97898.84;;;5.26;77.43
77823;BME280;67013;49.730;17.292;2023-12-20T11:46:08;97901.15;;;5.28;77.59
77823;BME280;67013;49.730;17.292;2023-12-20T11:48:38;97902.29;;;5.29;77.46
77823;BME280;67013;49.730;17.292;2023-12-20T11:51:12;97898.13;;;5.30;77.65
77823;BME280;67013;49.730;17.292;2023-12-20T11:53:42;97898.61;;;5.30;77.62
77823;BME280;67013;49.730;17.292;2023-12-20T11:56:12;97898.36;;;5.32;77.60
77823;BME280;67013;49.730;17.292;2023-12-20T11:58:41;97898.55;;;5.34;77.61
77823;BME280;67013;49.730;17.292;2023-12-20T12:01:11;97904.59;;;5.37;77.66
77823;BME280;67013;49.730;17.292;2023-12-20T12:03:40;97897.13;;;5.38;77.52
77823;BME280;67013;49.730;17.292;2023-12-20T12:06:13;97895.14;;;5.39;77.44
77823;BME280;67013;49.730;17.292;2023-12-20T12:08:43;97892.66;;;5.40;77.35
77823;BME280;67013;49.730;17.292;2023-12-20T12:11:12;97886.19;;;5.42;77.24
77823;BME280;67013;49.730;17.292;2023-12-20T12:13:42;97880.02;;;5.44;77.45
77823;BME280;67013;49.730;17.292;2023-12-20T12:16:11;97875.74;;;5.47;77.18
77823;BME280;67013;49.730;17.292;2023-12-20T12:18:41;97877.23;;;5.48;77.24
77823;BME280;67013;49.730;17.292;2023-12-20T12:21:11;97875.55;;;5.47;77.33
77823;BME280;67013;49.730;17.292;2023-12-20T12:23:48;97873.97;;;5.48;77.19
77823;BME280;67013;49.730;17.292;2023-12-20T12:26:17;97868.11;;;5.48;77.43
77823;BME280;67013;49.730;17.292;2023-12-20T12:28:47;97867.42;;;5.47;77.26
77823;BME280;67013;49.730;17.292;2023-12-20T12:31:16;97869.64;;;5.50;77.28
77823;BME280;67013;49.730;17.292;2023-12-20T12:33:47;97878.67;;;5.52;77.31
77823;BME280;67013;49.730;17.292;2023-12-20T12:36:17;97878.45;;;5.53;77.39
77823;BME280;67013;49.730;17.292;2023-12-20T12:38:46;97874.48;;;5.53;77.57
77823;BME280;67013;49.730;17.292;2023-12-20T12:41:16;97875.55;;;5.55;77.32
77823;BME280;67013;49.730;17.292;2023-12-20T12:43:45;97872.70;;;5.57;77.10
77823;BME280;67013;49.730;17.292;2023-12-20T12:46:15;97870.75;;;5.57;77.30
77823;BME280;67013;49.730;17.292;2023-12-20T12:48:45;97869.50;;;5.58;77.10
77823;BME280;67013;49.730;17.292;2023-12-20T12:51:14;97867.19;;;5.59;77.05
77823;BME280;67013;49.730;17.292;2023-12-20T12:53:44;97873.20;;;5.63;76.85
77823;BME280;67013;49.730;17.292;2023-12-20T12:56:14;97873.92;;;5.65;77.07
77823;BME280;67013;49.730;17.292;2023-12-20T12:58:45;97868.98;;;5.66;76.92
77823;BME280;67013;49.730;17.292;2023-12-20T13:01:14;97867.05;;;5.70;77.20
77823;BME280;67013;49.730;17.292;2023-12-20T13:03:44;97869.14;;;5.73;76.93
77823;BME280;67013;49.730;17.292;2023-12-20T13:06:13;97866.81;;;5.75;77.06
77823;BME280;67013;49.730;17.292;2023-12-20T13:08:43;97865.27;;;5.74;77.14
77823;BME280;67013;49.730;17.292;2023-12-20T13:11:13;97863.54;;;5.74;77.13
77823;BME280;67013;49.730;17.292;2023-12-20T13:13:43;97858.80;;;5.73;77.12
77823;BME280;67013;49.730;17.292;2023-12-20T13:16:12;97857.57;;;5.70;77.01